Time;durP1;ratioP1;P1;durP2;ratioP2;P2;SDS_P1;SDS_P2;PMS_P1;PMS_P2;Temp;Humidity;BMP_temperature;BMP_pressure;BME280_temperature;BME280_humidity;BME280_pressure;Samples;Min_cycle;Max_cycle;Signal;HPM_P1;HPM_P2
2022/09/20 00:01:10;;;;;;;5.50;3.77;;;10.30;99.90;;;;;;5116306;28;20458;-59
2022/09/20 00:03:38;;;;;;;4.80;4.03;;;10.20;99.90;;;;;;5116270;28;20541;-59
2022/09/20 00:06:07;;;;;;;5.03;4.00;;;10.20;99.90;;;;;;5116505;28;20442;-59
2022/09/20 00:08:34;;;;;;;3.93;3.63;;;10.20;99.90;;;;;;5116139;28;21013;-59
2022/09/20 00:11:02;;;;;;;5.80;4.20;;;10.30;99.90;;;;;;5116055;28;21079;-59
2022/09/20 00:13:31;;;;;;;3.97;3.57;;;10.30;99.90;;;;;;5116419;28;20461;-59
2022/09/20 00:15:59;;;;;;;5.13;3.63;;;10.20;99.90;;;;;;5116344;28;20537;-59
2022/09/20 00:18:30;;;;;;;5.23;3.63;;;10.10;99.90;;;;;;5115892;28;20446;-59
2022/09/20 00:20:57;;;;;;;4.43;3.97;;;10.00;99.90;;;;;;5116262;28;20423;-59
2022/09/20 00:23:24;;;;;;;4.40;3.77;;;10.00;99.90;;;;;;5115872;28;20485;-59
2022/09/20 00:25:56;;;;;;;3.90;3.57;;;10.10;99.90;;;;;;5116097;28;20541;-59
2022/09/20 00:28:24;;;;;;;8.70;4.53;;;10.00;99.90;;;;;;5115848;28;20446;-59
2022/09/20 00:30:55;;;;;;;14.27;4.20;;;10.00;99.90;;;;;;5115551;28;20481;-59
2022/09/20 00:33:23;;;;;;;4.40;4.00;;;9.90;99.90;;;;;;5115993;28;20506;-59
2022/09/20 00:35:50;;;;;;;5.37;3.93;;;9.90;99.90;;;;;;5115717;28;20451;-59
2022/09/20 00:38:17;;;;;;;6.27;4.00;;;9.80;99.90;;;;;;5116043;28;20442;-59
2022/09/20 00:40:45;;;;;;;7.47;3.67;;;9.80;99.90;;;;;;5115720;28;20545;-59
2022/09/20 00:43:15;;;;;;;4.63;4.00;;;9.80;99.90;;;;;;5115609;28;20450;-59
2022/09/20 00:45:46;;;;;;;6.20;3.13;;;9.80;99.90;;;;;;5115556;28;20474;-59
2022/09/20 00:48:21;;;;;;;6.20;3.20;;;9.80;99.90;;;;;;5115461;28;20431;-59
2022/09/20 00:50:54;;;;;;;3.73;3.43;;;9.80;99.90;;;;;;5115139;28;20861;-59
2022/09/20 00:53:25;;;;;;;3.70;3.30;;;9.90;99.90;;;;;;5115373;28;20919;-59
2022/09/20 00:55:55;;;;;;;5.00;4.50;;;10.10;99.90;;;;;;5115376;28;20977;-60
2022/09/20 00:58:26;;;;;;;4.30;3.60;;;10.20;99.90;;;;;;5115565;28;20527;-59
2022/09/20 01:00:55;;;;;;;5.20;3.53;;;10.20;99.90;;;;;;5115116;28;20518;-59
2022/09/20 01:03:30;;;;;;;9.00;3.37;;;10.10;99.90;;;;;;5114180;28;20450;-59
2022/09/20 01:06:02;;;;;;;4.10;3.70;;;9.90;99.90;;;;;;5115506;28;20484;-59
2022/09/20 01:08:29;;;;;;;3.93;3.03;;;9.90;99.90;;;;;;5114990;28;20433;-59
2022/09/20 01:10:57;;;;;;;8.60;3.67;;;9.80;99.90;;;;;;5114790;28;20485;-59
2022/09/20 01:13:24;;;;;;;3.40;2.77;;;9.80;99.90;;;;;;5115366;28;20542;-59
2022/09/20 01:15:52;;;;;;;4.93;3.20;;;10.00;99.90;;;;;;5115240;28;20635;-59
2022/09/20 01:18:21;;;;;;;8.77;3.50;;;9.90;99.90;;;;;;5114769;28;20442;-59
2022/09/20 01:20:50;;;;;;;6.20;3.87;;;9.90;99.90;;;;;;5114946;28;20450;-59
2022/09/20 01:23:38;;;;;;;8.30;4.07;;;10.00;99.90;;;;;;5115097;28;20438;-59
2022/09/20 01:26:49;;;;;;;3.63;3.17;;;10.00;99.90;;;;;;5114841;28;20935;-59
2022/09/20 01:29:34;;;;;;;4.90;3.73;;;10.10;99.90;;;;;;5114585;28;20434;-59
2022/09/20 01:32:05;;;;;;;3.73;3.20;;;10.20;99.90;;;;;;5114381;28;20489;-59
2022/09/20 01:34:35;;;;;;;5.57;3.50;;;10.20;99.90;;;;;;5115058;28;20515;-59
2022/09/20 01:37:08;;;;;;;4.43;3.03;;;10.00;99.90;;;;;;5114925;27;20458;-59
2022/09/20 01:39:42;;;;;;;4.27;3.20;;;9.90;99.90;;;;;;5114682;28;20441;-60
2022/09/20 01:42:11;;;;;;;5.60;3.13;;;9.80;99.90;;;;;;5114609;28;20493;-59
2022/09/20 01:44:49;;;;;;;7.80;3.57;;;9.70;99.90;;;;;;5114582;28;20464;-59
2022/09/20 01:47:27;;;;;;;3.90;3.47;;;9.70;99.90;;;;;;5114389;28;20510;-59
2022/09/20 01:50:06;;;;;;;18.60;4.23;;;9.80;99.90;;;;;;5114410;28;20425;-59
2022/09/20 01:52:57;;;;;;;4.70;3.20;;;9.90;99.90;;;;;;5114505;28;20846;-59
2022/09/20 01:55:50;;;;;;;8.10;3.90;;;9.90;99.90;;;;;;5114177;28;20442;-59
2022/09/20 01:58:59;;;;;;;4.50;3.40;;;9.90;99.90;;;;;;5114527;28;20427;-60
2022/09/20 02:01:54;;;;;;;4.13;3.73;;;9.90;99.90;;;;;;5042523;28;20477;-59
2022/09/20 02:04:51;;;;;;;6.20;3.30;;;10.00;99.90;;;;;;5110690;28;20451;-59
2022/09/20 02:07:43;;;;;;;4.73;3.20;;;9.90;99.90;;;;;;5114397;28;20451;-59
2022/09/20 02:10:46;;;;;;;3.90;3.50;;;9.90;99.90;;;;;;5114334;28;20423;-59
2022/09/20 02:13:27;;;;;;;5.50;3.33;;;9.90;99.90;;;;;;5096844;28;20486;-59
2022/09/20 02:16:20;;;;;;;6.53;3.17;;;9.90;99.90;;;;;;5114068;28;20427;-59
2022/09/20 02:19:20;;;;;;;9.17;3.53;;;9.90;99.90;;;;;;5076263;28;20438;-59
2022/09/20 02:21:53;;;;;;;5.20;2.83;;;9.90;99.90;;;;;;5113959;28;20454;-59
2022/09/20 02:24:28;;;;;;;3.30;3.00;;;9.90;99.90;;;;;;5113700;28;20454;-59
2022/09/20 02:27:07;;;;;;;5.67;3.47;;;10.10;99.90;;;;;;5114002;28;20426;-59
2022/09/20 02:29:45;;;;;;;5.87;3.53;;;10.10;99.90;;;;;;5113623;28;20427;-59
2022/09/20 02:32:39;;;;;;;8.30;3.20;;;10.10;99.90;;;;;;5114157;28;20486;-59
2022/09/20 02:35:25;;;;;;;4.53;2.77;;;10.20;99.90;;;;;;5113831;28;20443;-59
2022/09/20 02:38:05;;;;;;;4.43;3.63;;;10.30;99.90;;;;;;5113559;28;20523;-59
2022/09/20 02:40:55;;;;;;;6.23;3.43;;;10.30;99.90;;;;;;5113539;28;20783;-59
2022/09/20 02:43:31;;;;;;;4.07;3.57;;;10.40;99.90;;;;;;5096749;28;20955;-59
2022/09/20 02:46:06;;;;;;;4.33;3.13;;;10.30;99.90;;;;;;5112669;28;20503;-59
2022/09/20 02:48:39;;;;;;;9.93;3.40;;;10.20;99.90;;;;;;5113617;28;20509;-59
2022/09/20 02:51:16;;;;;;;5.30;3.63;;;10.20;99.90;;;;;;5113616;28;20482;-59
2022/09/20 02:53:48;;;;;;;4.53;2.93;;;10.10;99.90;;;;;;5113802;28;20468;-59
2022/09/20 02:56:20;;;;;;;2.93;2.63;;;10.00;99.90;;;;;;5113730;28;20441;-59
2022/09/20 02:58:57;;;;;;;4.23;3.83;;;10.10;99.90;;;;;;5113802;28;20441;-59
2022/09/20 03:01:36;;;;;;;4.60;3.10;;;10.10;99.90;;;;;;5113397;28;20969;-59
2022/09/20 03:04:20;;;;;;;4.20;3.80;;;10.10;99.90;;;;;;5113722;28;20483;-59
2022/09/20 03:06:57;;;;;;;3.47;2.80;;;10.20;99.90;;;;;;5113427;28;20791;-59
2022/09/20 03:09:33;;;;;;;3.90;3.50;;;10.10;99.90;;;;;;5113625;28;20454;-59
2022/09/20 03:12:12;;;;;;;5.70;3.20;;;10.10;99.90;;;;;;5113104;28;20746;-59
2022/09/20 03:14:46;;;;;;;5.13;3.00;;;10.20;99.90;;;;;;5113488;28;20430;-59
2022/09/20 03:17:22;;;;;;;9.40;3.47;;;10.00;99.90;;;;;;5113488;28;20794;-59
2022/09/20 03:20:06;;;;;;;4.30;3.13;;;10.00;99.90;;;;;;5113347;28;20435;-59
2022/09/20 03:22:48;;;;;;;5.33;3.20;;;9.90;99.90;;;;;;5113530;28;20458;-59
2022/09/20 03:25:42;;;;;;;2.90;2.70;;;9.90;99.90;;;;;;5113739;28;20863;-59
2022/09/20 03:28:38;;;;;;;4.53;3.10;;;10.00;99.90;;;;;;5114514;28;20446;-59
2022/09/20 03:31:13;;;;;;;4.40;3.47;;;10.10;99.90;;;;;;5113827;28;20999;-59
2022/09/20 03:33:50;;;;;;;4.37;3.53;;;10.20;99.90;;;;;;5117133;28;20466;-59
2022/09/20 03:36:36;;;;;;;3.50;3.20;;;10.20;99.90;;;;;;5117211;28;20457;-59
2022/09/20 03:39:22;;;;;;;4.53;3.40;;;10.20;99.90;;;;;;5117258;28;20460;-59
2022/09/20 03:42:02;;;;;;;4.53;2.90;;;10.20;99.90;;;;;;5117001;28;20465;-59
2022/09/20 03:44:48;;;;;;;3.80;2.50;;;10.30;99.90;;;;;;5117250;28;20547;-60
2022/09/20 03:47:27;;;;;;;3.90;3.50;;;10.20;99.90;;;;;;5117037;28;20605;-59
2022/09/20 03:50:20;;;;;;;5.87;3.40;;;10.10;99.90;;;;;;5116984;28;20511;-59
2022/09/20 03:53:20;;;;;;;3.70;2.83;;;10.10;99.90;;;;;;5116515;28;20482;-59
2022/09/20 03:56:10;;;;;;;5.93;3.20;;;10.20;99.90;;;;;;5116344;28;20838;-59
2022/09/20 03:58:56;;;;;;;5.40;3.37;;;10.30;99.90;;;;;;5116691;28;20431;-59
2022/09/20 04:01:46;;;;;;;3.43;3.13;;;10.40;99.90;;;;;;5116583;28;20467;-59
2022/09/20 04:04:23;;;;;;;9.37;3.33;;;10.30;99.90;;;;;;5116497;28;20458;-59
2022/09/20 04:07:17;;;;;;;13.33;4.20;;;10.40;99.90;;;;;;5116487;28;20418;-59
2022/09/20 04:10:16;;;;;;;2.80;2.60;;;10.40;99.90;;;;;;5116405;28;20515;-60
2022/09/20 04:13:11;;;;;;;4.80;2.93;;;10.30;99.90;;;;;;5082078;28;20513;-59
2022/09/20 04:15:50;;;;;;;6.23;3.37;;;10.30;99.90;;;;;;5116399;28;20882;-59
2022/09/20 04:18:25;;;;;;;4.50;3.50;;;10.40;99.90;;;;;;5116086;28;20513;-59
2022/09/20 04:21:00;;;;;;;3.20;2.90;;;10.40;99.90;;;;;;5115814;28;20437;-59
2022/09/20 04:23:39;;;;;;;3.20;2.90;;;10.50;99.90;;;;;;5115872;28;20423;-59
2022/09/20 04:26:06;;;;;;;5.97;3.10;;;10.60;99.90;;;;;;5115830;28;20435;-59
2022/09/20 04:28:41;;;;;;;5.30;3.30;;;10.60;99.90;;;;;;5116161;28;20443;-59
2022/09/20 04:31:29;;;;;;;5.00;2.87;;;10.50;99.90;;;;;;5116081;28;20500;-59
2022/09/20 04:33:59;;;;;;;7.17;2.60;;;10.50;99.90;;;;;;5115684;28;20825;-59
2022/09/20 04:36:37;;;;;;;5.37;3.10;;;10.60;99.90;;;;;;5115243;28;20932;-60
2022/09/20 04:39:20;;;;;;;4.23;3.00;;;10.60;99.90;;;;;;5114926;28;20422;-59
2022/09/20 04:42:19;;;;;;;11.97;3.57;;;10.50;99.90;;;;;;5115656;28;20640;-60
2022/09/20 04:45:13;;;;;;;6.27;2.90;;;10.50;99.90;;;;;;5115667;28;20517;-60
2022/09/20 04:48:12;;;;;;;5.10;3.10;;;10.40;99.90;;;;;;5074981;28;20942;-60
2022/09/20 04:51:05;;;;;;;12.20;3.10;;;10.30;99.90;;;;;;5074876;28;20789;-60
2022/09/20 04:53:51;;;;;;;6.20;3.70;;;10.30;99.90;;;;;;5074873;28;20479;-59
2022/09/20 04:56:32;;;;;;;4.83;3.53;;;10.10;99.90;;;;;;5074492;28;20923;-61
2022/09/20 04:59:10;;;;;;;7.60;3.10;;;10.10;99.90;;;;;;5074797;28;20784;-61
2022/09/20 05:02:16;;;;;;;7.33;4.03;;;10.10;99.90;;;;;;5074660;28;20464;-60
2022/09/20 05:05:27;;;;;;;5.63;3.77;;;10.10;99.90;;;;;;5074591;28;20425;-60
2022/09/20 05:08:28;;;;;;;4.40;3.33;;;10.00;99.90;;;;;;5072005;28;20456;-61
2022/09/20 05:11:29;;;;;;;7.00;4.10;;;10.00;99.90;;;;;;5074164;28;20449;-60
2022/09/20 05:14:31;;;;;;;6.37;3.83;;;10.00;99.90;;;;;;5074450;28;20927;-60
2022/09/20 05:17:24;;;;;;;6.40;3.70;;;10.00;99.90;;;;;;5050044;28;20455;-61
2022/09/20 05:20:26;;;;;;;4.50;4.07;;;9.90;99.90;;;;;;5074202;28;20421;-60
2022/09/20 05:23:29;;;;;;;6.70;4.00;;;9.90;99.90;;;;;;5048177;28;20978;-60
2022/09/20 05:26:29;;;;;;;6.53;3.10;;;9.90;99.90;;;;;;5042129;28;20452;-60
2022/09/20 05:29:01;;;;;;;8.50;4.10;;;10.00;99.90;;;;;;5068381;28;20467;-60
2022/09/20 05:31:39;;;;;;;4.40;3.37;;;10.00;99.90;;;;;;5073789;28;20613;-61
2022/09/20 05:34:19;;;;;;;13.37;3.70;;;10.00;99.90;;;;;;5073749;28;20856;-60
2022/09/20 05:36:56;;;;;;;5.50;4.03;;;10.00;99.90;;;;;;5073921;28;20424;-61
2022/09/20 05:39:36;;;;;;;11.20;4.50;;;10.10;99.90;;;;;;5073932;28;20425;-61
2022/09/20 05:42:14;;;;;;;4.90;4.50;;;10.10;99.90;;;;;;5073596;28;20463;-61
2022/09/20 05:44:55;;;;;;;7.20;4.33;;;10.00;99.90;;;;;;5073924;28;20435;-60
2022/09/20 05:47:34;;;;;;;7.20;4.47;;;9.90;99.90;;;;;;5073434;28;20921;-60
2022/09/20 05:50:22;;;;;;;10.90;4.73;;;10.00;99.90;;;;;;5073495;28;20431;-61
2022/09/20 05:52:57;;;;;;;7.90;3.90;;;10.10;99.90;;;;;;5073298;28;20999;-60
2022/09/20 05:55:52;;;;;;;6.53;4.63;;;10.20;99.90;;;;;;5073228;28;20428;-60
2022/09/20 05:58:49;;;;;;;6.00;5.40;;;10.20;99.90;;;;;;5073340;28;20464;-59
2022/09/20 06:01:23;;;;;;;6.87;4.57;;;10.20;99.90;;;;;;5060673;28;21041;-59
2022/09/20 06:03:55;;;;;;;6.13;5.43;;;10.30;99.90;;;;;;5073594;28;20429;-61
2022/09/20 06:06:29;;;;;;;9.13;4.97;;;10.30;99.90;;;;;;5073203;28;20960;-60
2022/09/20 06:09:17;;;;;;;10.70;6.17;;;10.40;99.90;;;;;;5073412;28;20486;-59
2022/09/20 06:12:04;;;;;;;12.90;5.73;;;10.40;99.90;;;;;;5073377;28;20483;-60
2022/09/20 06:14:43;;;;;;;6.50;5.07;;;10.40;99.90;;;;;;5070818;28;20913;-59
2022/09/20 06:17:26;;;;;;;10.43;4.90;;;10.40;99.90;;;;;;5072849;28;20517;-60
2022/09/20 06:20:11;;;;;;;5.47;4.23;;;10.50;99.90;;;;;;5073094;28;20433;-59
2022/09/20 06:22:43;;;;;;;6.60;5.10;;;10.50;99.90;;;;;;5073052;28;20544;-60
2022/09/20 06:25:20;;;;;;;10.53;6.60;;;10.60;99.90;;;;;;5072848;28;20440;-60
2022/09/20 06:27:51;;;;;;;20.30;8.33;;;10.60;99.90;;;;;;5073095;28;20952;-60
2022/09/20 06:30:22;;;;;;;22.97;15.50;;;10.60;99.90;;;;;;5073316;28;20451;-60
2022/09/20 06:32:58;;;;;;;8.53;7.60;;;10.70;99.90;;;;;;5072411;28;20484;-61
2022/09/20 06:35:33;;;;;;;9.30;7.43;;;10.60;99.90;;;;;;5073011;28;20471;-60
2022/09/20 06:43:41;;;;;;;10.73;4.10;;;10.90;99.90;;;;;;5063822;28;20781;-59
2022/09/20 06:46:09;;;;;;;7.73;4.27;;;10.80;99.90;;;;;;5094676;28;20476;-60
2022/09/20 06:48:38;;;;;;;5.53;3.90;;;10.80;99.90;;;;;;5113013;28;20492;-62
2022/09/20 06:51:06;;;;;;;9.20;3.30;;;10.80;99.90;;;;;;5113070;28;20860;-60
2022/09/20 06:53:39;;;;;;;15.10;4.10;;;10.80;99.90;;;;;;5113369;28;20841;-59
2022/09/20 06:56:08;;;;;;;7.43;4.80;;;10.90;99.90;;;;;;5113319;28;20430;-60
2022/09/20 06:58:35;;;;;;;8.20;4.10;;;10.90;99.90;;;;;;5113204;28;20438;-61
2022/09/20 07:01:02;;;;;;;8.73;4.13;;;10.90;99.90;;;;;;5114728;28;20465;-61
2022/09/20 07:03:31;;;;;;;7.10;3.57;;;11.00;99.90;;;;;;5117652;28;20534;-61
2022/09/20 07:05:59;;;;;;;7.53;3.60;;;11.00;99.90;;;;;;5117437;28;20473;-60
2022/09/20 07:08:26;;;;;;;8.73;3.90;;;11.10;99.90;;;;;;5117057;28;20861;-60
2022/09/20 07:10:55;;;;;;;6.10;4.27;;;11.10;99.90;;;;;;5117394;28;20468;-60
2022/09/20 07:13:22;;;;;;;7.33;3.60;;;11.20;99.90;;;;;;5117149;28;20490;-61
2022/09/20 07:15:50;;;;;;;5.90;3.20;;;11.30;99.90;;;;;;5116930;28;20446;-60
2022/09/20 07:18:17;;;;;;;4.73;3.70;;;11.30;99.90;;;;;;5116675;28;20477;-60
2022/09/20 07:20:44;;;;;;;6.13;2.97;;;11.30;99.90;;;;;;5116845;28;20465;-61
2022/09/20 07:23:14;;;;;;;8.20;3.87;;;11.30;99.90;;;;;;5116546;28;20446;-61
2022/09/20 07:25:41;;;;;;;8.13;4.00;;;11.40;99.90;;;;;;5117079;28;20507;-60
2022/09/20 07:28:10;;;;;;;6.90;3.90;;;11.40;99.90;;;;;;5116769;28;20449;-59
2022/09/20 07:30:37;;;;;;;14.37;4.47;;;11.50;99.90;;;;;;5116684;28;20457;-59
2022/09/20 07:33:06;;;;;;;7.23;4.70;;;11.40;99.90;;;;;;5116840;28;20486;-59
2022/09/20 07:35:33;;;;;;;7.13;5.10;;;11.40;99.90;;;;;;5116623;28;20519;-60
2022/09/20 07:38:01;;;;;;;9.00;4.30;;;11.50;99.90;;;;;;5116473;28;20446;-60
2022/09/20 07:40:29;;;;;;;11.67;4.77;;;11.50;99.90;;;;;;5116529;28;20939;-61
2022/09/20 07:42:57;;;;;;;6.07;4.07;;;11.60;99.90;;;;;;5116426;27;20476;-60
2022/09/20 07:45:26;;;;;;;5.43;3.63;;;11.80;99.90;;;;;;5116233;28;20482;-60
2022/09/20 07:47:53;;;;;;;13.87;4.47;;;11.90;99.90;;;;;;5116397;28;20427;-60
2022/09/20 07:50:20;;;;;;;13.67;4.63;;;11.90;99.90;;;;;;5116720;28;20809;-60
2022/09/20 07:52:47;;;;;;;16.57;4.30;;;11.90;99.90;;;;;;5116203;28;20992;-60
2022/09/20 07:55:15;;;;;;;4.33;3.37;;;11.90;99.90;;;;;;5116456;28;20533;-61
2022/09/20 07:57:42;;;;;;;3.50;3.20;;;12.00;99.90;;;;;;5116336;28;20447;-61
2022/09/20 08:00:11;;;;;;;9.73;3.10;;;11.90;99.90;;;;;;5116616;28;20793;-61
2022/09/20 08:02:39;;;;;;;10.17;4.00;;;12.10;99.90;;;;;;5116302;28;20474;-61
2022/09/20 08:05:07;;;;;;;7.30;3.40;;;12.30;99.90;;;;;;5116015;28;20955;-61
2022/09/20 08:07:34;;;;;;;10.73;3.83;;;12.40;99.90;;;;;;5116047;28;20813;-60
2022/09/20 08:10:01;;;;;;;4.37;3.53;;;12.40;99.90;;;;;;5116001;28;20944;-60
2022/09/20 08:12:29;;;;;;;8.70;3.30;;;12.40;99.90;;;;;;5115436;28;20546;-61
2022/09/20 08:14:56;;;;;;;9.77;3.40;;;12.50;99.90;;;;;;5116131;28;20468;-60
2022/09/20 08:17:24;;;;;;;6.47;4.37;;;12.50;99.90;;;;;;5115723;28;20447;-60
2022/09/20 08:19:52;;;;;;;6.93;3.20;;;12.50;99.90;;;;;;5116126;28;20452;-60
2022/09/20 08:22:22;;;;;;;3.70;3.10;;;12.60;99.90;;;;;;5116038;28;20462;-60
2022/09/20 08:24:50;;;;;;;3.47;2.40;;;12.60;99.90;;;;;;5115652;28;20443;-60
2022/09/20 08:27:17;;;;;;;3.27;2.97;;;12.70;99.90;;;;;;5115560;28;20446;-59
2022/09/20 08:29:44;;;;;;;9.27;3.30;;;12.70;99.90;;;;;;5115683;28;20519;-59
2022/09/20 08:32:12;;;;;;;10.13;3.83;;;12.80;99.90;;;;;;5115519;28;21007;-59
2022/09/20 08:34:39;;;;;;;6.93;3.17;;;12.80;99.90;;;;;;5115647;28;20497;-60
2022/09/20 08:37:07;;;;;;;6.17;3.27;;;12.80;99.90;;;;;;5115700;28;20478;-60
2022/09/20 08:39:35;;;;;;;5.67;3.17;;;12.80;99.90;;;;;;5115849;28;20495;-59
2022/09/20 08:42:10;;;;;;;10.70;3.37;;;12.80;99.90;;;;;;5115645;28;20470;-61
2022/09/20 08:44:46;;;;;;;7.57;3.70;;;12.90;99.90;;;;;;5115581;28;20426;-60
2022/09/20 08:47:19;;;;;;;5.20;3.30;;;13.10;99.90;;;;;;5115041;28;20481;-60
2022/09/20 08:49:47;;;;;;;6.60;4.63;;;13.10;99.90;;;;;;5115305;28;20894;-61
2022/09/20 08:52:19;;;;;;;6.87;3.03;;;13.00;99.90;;;;;;5115207;28;20466;-61
2022/09/20 08:54:46;;;;;;;4.70;2.73;;;13.30;99.90;;;;;;5115027;28;20558;-60
2022/09/20 08:57:17;;;;;;;6.43;3.00;;;13.20;99.90;;;;;;5115127;28;20948;-60
2022/09/20 08:59:45;;;;;;;5.40;2.63;;;13.00;99.90;;;;;;5115369;28;20435;-60
2022/09/20 09:02:16;;;;;;;10.23;4.30;;;13.30;99.90;;;;;;5115284;28;20509;-60
2022/09/20 09:04:44;;;;;;;6.13;2.43;;;13.40;99.90;;;;;;5114868;28;20860;-60
2022/09/20 09:07:13;;;;;;;9.27;3.20;;;;;;;;;;5115059;28;20989;-60
2022/09/20 09:09:43;;;;;;;8.80;3.10;;;13.40;99.90;;;;;;5115206;28;20442;-60
2022/09/20 09:12:23;;;;;;;7.43;3.90;;;13.60;99.90;;;;;;5115003;28;20468;-60
2022/09/20 09:14:53;;;;;;;8.20;2.77;;;13.70;99.90;;;;;;5114960;28;20535;-60
2022/09/20 09:17:23;;;;;;;5.40;2.93;;;13.60;99.90;;;;;;5114974;28;20418;-61
2022/09/20 09:19:52;;;;;;;10.60;2.67;;;13.60;99.90;;;;;;5114566;28;20936;-60
2022/09/20 09:22:23;;;;;;;6.33;2.93;;;13.60;99.90;;;;;;5114662;28;20898;-60
2022/09/20 09:25:33;;;;;;;6.83;3.40;;;13.40;99.90;;;;;;5114030;28;20509;-60
2022/09/20 09:28:02;;;;;;;6.80;2.57;;;13.40;99.90;;;;;;5114441;28;20893;-60
2022/09/20 09:30:31;;;;;;;9.93;2.60;;;13.30;99.90;;;;;;5114353;28;20453;-60
2022/09/20 09:33:23;;;;;;;4.33;3.20;;;13.20;99.90;;;;;;5114688;28;20463;-60
2022/09/20 09:35:57;;;;;;;6.57;3.43;;;13.30;99.90;;;;;;5110402;28;20459;-60
2022/09/20 09:38:26;;;;;;;3.20;2.53;;;13.50;99.90;;;;;;5114442;28;20438;-61
2022/09/20 09:40:56;;;;;;;8.97;2.77;;;14.40;99.90;;;;;;5114413;28;20443;-61
2022/09/20 09:43:27;;;;;;;5.60;2.53;;;15.50;99.90;;;;;;5114353;28;20541;-61
2022/09/20 09:45:56;;;;;;;8.50;2.70;;;15.70;99.90;;;;;;5114160;28;20514;-60
2022/09/20 09:48:26;;;;;;;10.40;3.00;;;15.00;99.90;;;;;;5114136;28;20478;-61
2022/09/20 09:51:09;;;;;;;5.87;2.50;;;14.70;99.90;;;;;;5114117;28;20526;-60
2022/09/20 09:53:36;;;;;;;5.07;2.40;;;14.40;99.90;;;;;;5114191;28;20470;-60
2022/09/20 09:56:20;;;;;;;6.63;2.00;;;14.20;99.90;;;;;;5113909;28;20540;-59
2022/09/20 09:59:09;;;;;;;4.47;2.67;;;13.70;99.90;;;;;;5114265;28;20828;-59
2022/09/20 10:01:45;;;;;;;7.00;2.40;;;13.70;99.90;;;;;;5113857;28;20474;-59
2022/09/20 10:04:18;;;;;;;5.47;2.00;;;13.50;99.90;;;;;;5113835;28;20433;-59
2022/09/20 10:06:53;;;;;;;5.17;2.50;;;13.70;99.90;;;;;;5114021;28;20411;-59
2022/09/20 10:09:30;;;;;;;2.33;2.13;;;13.90;99.90;;;;;;5113934;28;20843;-60
2022/09/20 10:12:21;;;;;;;6.60;2.83;;;14.40;99.90;;;;;;5113606;28;21013;-59
2022/09/20 10:15:02;;;;;;;4.70;2.43;;;14.70;99.90;;;;;;5113813;28;20618;-59
2022/09/20 10:17:43;;;;;;;6.87;3.93;;;14.70;99.90;;;;;;5114053;28;20427;-59
2022/09/20 10:20:30;;;;;;;13.00;3.50;;;14.80;99.90;;;;;;5113880;28;20433;-59
2022/09/20 10:23:09;;;;;;;10.97;3.77;;;15.60;99.90;;;;;;5113526;28;20458;-59
2022/09/20 10:25:46;;;;;;;7.93;3.50;;;15.60;99.90;;;;;;5113543;28;20761;-59
2022/09/20 10:28:32;;;;;;;4.27;2.23;;;15.30;99.90;;;;;;5113767;28;20427;-60
2022/09/20 10:31:10;;;;;;;5.17;2.53;;;15.20;99.90;;;;;;5113352;28;20435;-60
2022/09/20 10:33:44;;;;;;;3.53;2.00;;;15.00;99.90;;;;;;5113543;28;20505;-60
2022/09/20 10:36:24;;;;;;;5.27;2.47;;;15.30;99.90;;;;;;5113592;28;20434;-60
2022/09/20 10:38:58;;;;;;;10.73;2.47;;;15.40;99.90;;;;;;5113692;28;20445;-59
2022/09/20 10:44:41;;;;;;;6.27;2.23;;;15.80;99.90;;;;;;5113864;28;20569;-60
2022/09/20 10:47:15;;;;;;;9.17;2.60;;;15.70;99.90;;;;;;5113307;28;20484;-60
2022/09/20 10:49:48;;;;;;;5.60;2.03;;;15.50;99.90;;;;;;5113374;28;20963;-60
2022/09/20 10:52:43;;;;;;;6.37;2.63;;;15.20;99.90;;;;;;5113273;28;20528;-61
2022/09/20 10:55:24;;;;;;;5.20;2.40;;;15.20;99.90;;;;;;5110679;28;20557;-60
2022/09/20 10:58:19;;;;;;;3.13;2.13;;;15.00;99.90;;;;;;5113131;28;20426;-60
2022/09/20 11:00:55;;;;;;;6.70;2.33;;;14.80;99.90;;;;;;5113052;28;20523;-60
2022/09/20 11:03:53;;;;;;;4.70;2.40;;;14.80;99.90;;;;;;5113189;28;20422;-60
2022/09/20 11:06:26;;;;;;;7.90;3.07;;;14.70;99.90;;;;;;5097555;28;20545;-60
2022/09/20 11:08:58;;;;;;;6.60;2.67;;;14.70;99.90;;;;;;5113104;28;20435;-60
2022/09/20 11:11:29;;;;;;;5.80;2.20;;;15.00;99.90;;;;;;5113456;28;20463;-60
2022/09/20 11:14:03;;;;;;;3.80;2.50;;;15.40;99.90;;;;;;5113287;28;20777;-60
2022/09/20 11:16:38;;;;;;;7.33;2.37;;;15.70;99.90;;;;;;5113296;28;20536;-60
2022/09/20 11:19:15;;;;;;;3.43;2.30;;;16.90;99.90;;;;;;5113163;28;20522;-60
2022/09/20 11:21:49;;;;;;;3.90;2.17;;;18.00;99.90;;;;;;5112845;28;20466;-60
2022/09/20 11:24:26;;;;;;;3.03;2.30;;;19.00;99.60;;;;;;5113031;28;20426;-61
2022/09/20 11:26:57;;;;;;;7.57;2.10;;;19.90;97.40;;;;;;5112986;28;20435;-60
2022/09/20 11:29:28;;;;;;;7.90;2.07;;;19.70;98.00;;;;;;5112998;28;20434;-61
2022/09/20 11:32:02;;;;;;;4.00;2.07;;;20.30;93.60;;;;;;5112563;28;20465;-61
2022/09/20 11:34:33;;;;;;;2.97;1.90;;;19.90;94.40;;;;;;5112908;28;20472;-60
2022/09/20 11:37:02;;;;;;;4.13;1.80;;;19.10;94.60;;;;;;5112869;28;20812;-60
2022/09/20 11:39:36;;;;;;;8.40;1.80;;;18.60;94.80;;;;;;5113296;28;20446;-61
2022/09/20 11:42:05;;;;;;;4.67;2.30;;;18.70;95.30;;;;;;5113090;28;20481;-61
2022/09/20 11:44:32;;;;;;;6.37;1.90;;;19.40;93.40;;;;;;5113266;28;20465;-62
2022/09/20 11:47:05;;;;;;;7.80;2.57;;;19.20;94.10;;;;;;5113667;28;20474;-61
2022/09/20 11:49:42;;;;;;;6.43;2.23;;;18.60;94.60;;;;;;5116825;28;20427;-62
2022/09/20 11:52:29;;;;;;;4.60;2.30;;;18.60;96.80;;;;;;5116514;28;20549;-61
2022/09/20 11:55:20;;;;;;;5.97;2.27;;;18.40;95.90;;;;;;5116353;28;20474;-60
2022/09/20 11:58:00;;;;;;;6.60;2.37;;;17.80;97.00;;;;;;5116386;28;20794;-61
2022/09/20 12:00:31;;;;;;;4.53;2.23;;;17.00;95.70;;;;;;5116886;28;20773;-61
2022/09/20 12:03:00;;;;;;;8.20;2.10;;;16.50;97.20;;;;;;5115949;28;20538;-60
2022/09/20 12:05:32;;;;;;;5.37;2.57;;;16.70;96.80;;;;;;5116017;28;20560;-61
2022/09/20 12:08:02;;;;;;;2.73;2.10;;;16.70;97.30;;;;;;5116028;28;20500;-61
2022/09/20 12:10:34;;;;;;;6.97;2.43;;;16.90;95.20;;;;;;5116300;28;20800;-60
2022/09/20 12:13:03;;;;;;;3.40;2.10;;;17.10;96.20;;;;;;5116189;28;20470;-61
2022/09/20 12:15:32;;;;;;;8.90;2.47;;;17.20;93.10;;;;;;5115784;28;21028;-60
2022/09/20 12:18:31;;;;;;;5.17;1.73;;;17.40;93.40;;;;;;5115785;28;20445;-60
2022/09/20 12:21:18;;;;;;;3.90;1.83;;;17.40;92.20;;;;;;5115508;28;20431;-60
2022/09/20 12:23:59;;;;;;;5.70;2.10;;;18.10;94.60;;;;;;5115895;28;20462;-61
2022/09/20 12:26:42;;;;;;;2.27;1.97;;;18.60;92.90;;;;;;5115816;28;20423;-61
2022/09/20 12:29:53;;;;;;;6.40;2.00;;;18.80;92.80;;;;;;5116157;28;20510;-61
2022/09/20 12:32:59;;;;;;;4.70;1.70;;;19.40;92.10;;;;;;5115487;28;20492;-61
2022/09/20 12:36:17;;;;;;;7.00;2.40;;;20.10;90.10;;;;;;5115396;28;20474;-61
2022/09/20 12:39:04;;;;;;;2.80;2.37;;;19.30;90.70;;;;;;5115788;28;20451;-61
2022/09/20 12:41:46;;;;;;;6.23;2.30;;;18.70;90.80;;;;;;5115790;28;20555;-61
2022/09/20 12:44:26;;;;;;;3.37;1.87;;;19.10;91.90;;;;;;5115903;28;20451;-62
2022/09/20 12:46:56;;;;;;;2.70;1.80;;;20.20;91.50;;;;;;5115046;28;21010;-61
2022/09/20 12:52:56;;;;;;;3.57;2.10;;;20.10;90.10;;;;;;5115292;28;20782;-61
2022/09/20 12:55:42;;;;;;;3.83;2.30;;;20.00;90.10;;;;;;5115470;28;20489;-61
2022/09/20 12:58:27;;;;;;;3.57;1.70;;;20.20;89.90;;;;;;5113843;28;20430;-60
2022/09/20 13:01:29;;;;;;;6.27;1.90;;;19.10;85.40;;;;;;5115270;28;20431;-61
2022/09/20 13:04:35;;;;;;;2.37;1.77;;;18.20;87.60;;;;;;5109494;28;20450;-61
2022/09/20 13:07:41;;;;;;;5.63;2.37;;;18.20;90.30;;;;;;5114690;27;20499;-61
2022/09/20 13:10:22;;;;;;;4.80;2.40;;;18.80;88.70;;;;;;5115250;28;20445;-61
2022/09/20 13:12:52;;;;;;;6.13;2.10;;;19.20;85.40;;;;;;5115184;28;20470;-61
2022/09/20 13:15:21;;;;;;;3.53;2.00;;;19.30;85.50;;;;;;5114964;28;20485;-61
2022/09/20 13:17:51;;;;;;;3.40;1.80;;;19.10;84.70;;;;;;5115048;28;20545;-61
2022/09/20 13:20:23;;;;;;;7.50;2.20;;;19.50;85.70;;;;;;5114834;28;20474;-61
2022/09/20 13:22:53;;;;;;;3.30;1.83;;;19.60;86.90;;;;;;5114821;28;20485;-61
2022/09/20 13:25:23;;;;;;;2.90;1.73;;;19.50;84.50;;;;;;5114334;28;20451;-61
2022/09/20 13:28:00;;;;;;;2.47;1.67;;;19.20;86.20;;;;;;5114458;28;20441;-61
2022/09/20 13:30:31;;;;;;;2.50;2.10;;;18.80;90.60;;;;;;5114504;28;20427;-60
2022/09/20 13:33:16;;;;;;;3.57;2.63;;;18.20;89.50;;;;;;5114277;28;20511;-61
2022/09/20 13:35:47;;;;;;;5.90;2.00;;;18.00;91.50;;;;;;5114293;28;20554;-60
2022/09/20 13:38:19;;;;;;;2.47;1.80;;;17.90;90.30;;;;;;5114403;28;20480;-60
2022/09/20 13:40:49;;;;;;;5.27;2.90;;;17.60;90.50;;;;;;5114198;28;20464;-61
2022/09/20 13:43:27;;;;;;;3.73;2.70;;;17.50;89.90;;;;;;5114442;28;20459;-61
2022/09/20 13:45:57;;;;;;;5.57;2.90;;;17.30;90.40;;;;;;5114172;28;20817;-61
2022/09/20 13:48:26;;;;;;;3.70;2.67;;;17.30;91.00;;;;;;5114503;28;20426;-60
2022/09/20 13:50:54;;;;;;;3.00;2.10;;;17.10;91.10;;;;;;5113597;28;20438;-60
2022/09/20 13:53:23;;;;;;;6.37;2.70;;;17.20;92.00;;;;;;5114195;28;20447;-60